Aviation Digital Data Service (ADDS)

Output produced by METARs form (1911 UTC 25 June 2017)
found at http://www.aviationweather.gov/adds/metars/
 
UKKM 251900Z AUTO 14001MPS 0300 NCD 20/20 Q1011
TAF AMD UKKM 251855Z 2518/2618 VRB02MPS 3000 BR BKN010 
     TEMPO 2518/2604 28005G10MPS 0300 -SHRA FG BKN002 SCT020CB 
     BECMG 2604/2606 21005G10MPS 9999 NSW SCT010 BKN020 
     TEMPO 2606/2618 25009G14MPS 1400 TSRAGR SCT007 BKN025CB TX29/2612Z TN17/2602Z
       
UKBB 251900Z VRB01MPS CAVOK 21/17 Q1011 R88/CLRD// NOSIG
TAF UKBB 251700Z 2518/2618 34005MPS 9999 BKN030 
     TEMPO 2518/2521 VRB08G14MPS 2100 -TSRA SCT007 BKN020CB 
     BECMG 2521/2522 22004MPS 
     TEMPO 2522/2605 2000 -SHRA BR BKN007 SCT015CB 
     BECMG 2605/2606 20005G11MPS 
     TEMPO 2608/2618 VRB10G17MPS 1400 TSRAGR SQ SCT006 BKN020CB TX30/2612Z TN15/2603Z
       
UKLN 251900Z 21002MPS 160V290 CAVOK 25/16 Q1011 R33/09//70 NOSIG
TAF UKLN 251710Z 2518/2603 18005MPS 9999 SCT030CB 
     TEMPO 2518/2603 2100 -TSRA BKN020CB TX26/2518Z TN19/2603Z
       
UKDD 251900Z 00000MPS CAVOK 21/12 Q1014 R26/090070 NOSIG
TAF UKDD 251708Z 2518/2618 30004MPS CAVOK 
     BECMG 2521/2523 23005MPS 
     TEMPO 2606/2618 20007G12MPS 3100 -SHRA SCT012 BKN020CB TX30/2612Z TN18/2602Z
       
UKLI 251900Z 23002MPS CAVOK 21/16 Q1011 R28/090070 NOSIG
TAF UKLI 251703Z 2518/2603 25006G11MPS 9999 SCT020CB BKN030 
     TEMPO 2518/2603 VRB15MPS 1500 TSRAGR BKN004 BKN012CB TX25/2518Z TN15/2603Z
       
UKDR 251900Z 13001MPS CAVOK 22/14 Q1014 R36/09//70 NOSIG
TAF UKDR 251709Z 2518/2618 VRB02MPS 9999 SCT030 
     BECMG 2604/2606 21006G11MPS TX30/2612Z TN19/2602Z
       
UKLL 251900Z 21003MPS CAVOK 22/15 Q1010 R31/CLRD// NOSIG
TAF UKLL 251707Z 2518/2618 20003MPS 9999 BKN025 
     TEMPO 2518/2608 27007MPS 1100 -SHRA BR BKN005 BKN020CB 
     PROB40 
     TEMPO 2518/2608 -TSRA BKN015CB 
     BECMG 2608/2610 25003MPS 
     TEMPO 2610/2618 22007MPS 3000 -SHRA BKN005 BKN020CB 
     PROB40 
     TEMPO 2610/2618 -TSRA BKN015CB
       
UKDE 251900Z 04001MPS CAVOK 23/15 Q1014 R20/CLRD70 NOSIG
TAF UKDE 251701Z 2518/2603 27003MPS 9999 SCT030 TX26/2518Z TN18/2603Z
       
UKON 251700Z 22004MPS 180V250 9999 FEW040 25/17 Q1013 NOSIG
TAF UKON 251402Z 2515/2524 33003MPS 9999 SCT030CB TX28/2515Z TN18/2524Z
       
UKOO 251900Z 20003MPS CAVOK 22/19 Q1015 R16/090060 NOSIG
TAF UKOO 251705Z 2518/2618 22003MPS 2100 BR SCT007 SCT020CB 
     BECMG 2606/2607 17005G12MPS 6000 NSW TX28/2612Z TN16/2602Z
       
UKHH 251900Z 20001MPS CAVOK 19/13 Q1013 R25/0///66 NOSIG
TAF UKHH 251710Z 2518/2603 28003MPS 9999 BKN030 
     TEMPO 2600/2603 2100 BR SCT007
       
UKLR 251500Z 28003MPS 240V330 9999 FEW033 28/14 Q1010 NOSIG
TAF UKLR 251108Z 2512/2521 26005MPS 9999 BKN026 
     TEMPO 2512/2518 29007G12MPS SCT020CB TX28/2513Z TN23/2521Z
       
UKLU 251900Z 10004MPS 9999 BKN100 25/18 Q1010 NOSIG
TAF UKLU 251701Z 2518/2603 16003MPS 9999 BKN040 
     TEMPO 2518/2524 VRB09G14MPS 2000 -TSRA SCT007 BKN015CB TX26/2518Z TN16/2603Z
       
UKKK 251900Z VRB01MPS CAVOK 21/16 Q1011 R08/70D NOSIG
TAF UKKK 251706Z 2518/2618 VRB02MPS 9999 BKN020 
     TEMPO 2518/2603 27008G13MPS 2100 -SHRA BR SCT007 SCT015CB 
     PROB40 
     TEMPO 2518/2521 -TSRA BKN015CB 
     BECMG 2603/2604 20003G08MPS 
     TEMPO 2606/2618 28009G14MPS 2100 -TSRAGR BKN007 BKN015CB TX28/2612Z TN16/2603Z